Time;durP1;ratioP1;P1;durP2;ratioP2;P2;SDS_P1;SDS_P2;PMS_P1;PMS_P2;Temp;Humidity;BMP_temperature;BMP_pressure;BME280_temperature;BME280_humidity;BME280_pressure;Samples;Min_cycle;Max_cycle;Signal;HPM_P1;HPM_P2
2022/05/25 00:00:37;;;;;;;20.60;16.38;;;9.10;99.90;;;;;;5031176;28;20050;-83
2022/05/25 00:03:04;;;;;;;20.33;14.68;;;9.00;99.90;;;;;;5031716;28;20044;-82
2022/05/25 00:05:33;;;;;;;19.95;15.27;;;9.00;99.90;;;;;;5031604;28;20049;-82
2022/05/25 00:08:00;;;;;;;20.73;13.67;;;9.00;99.90;;;;;;5032408;28;20038;-82
2022/05/25 00:10:25;;;;;;;20.27;13.43;;;8.90;99.90;;;;;;5035844;28;20056;-83
2022/05/25 00:12:51;;;;;;;19.43;13.00;;;9.00;99.90;;;;;;5036600;28;20396;-82
2022/05/25 00:15:17;;;;;;;17.85;12.38;;;9.00;99.90;;;;;;5036796;28;20053;-83
2022/05/25 00:17:42;;;;;;;18.50;13.13;;;9.00;99.90;;;;;;5035851;28;20045;-82
2022/05/25 00:20:10;;;;;;;18.73;12.93;;;9.00;99.90;;;;;;5036512;28;20033;-82
2022/05/25 00:22:45;;;;;;;20.35;12.90;;;9.00;99.90;;;;;;5036071;28;20050;-82
2022/05/25 00:25:17;;;;;;;18.20;12.55;;;9.00;99.90;;;;;;5035533;28;20469;-82
2022/05/25 00:27:43;;;;;;;17.35;12.10;;;9.00;99.90;;;;;;5036010;28;20041;-82
2022/05/25 00:30:09;;;;;;;18.23;12.00;;;9.00;99.90;;;;;;5035377;28;20041;-82
2022/05/25 00:32:36;;;;;;;19.75;11.48;;;8.90;99.90;;;;;;5036227;28;20073;-83
2022/05/25 00:35:01;;;;;;;16.35;10.82;;;8.90;99.90;;;;;;5034814;28;20049;-82
2022/05/25 00:37:27;;;;;;;18.48;11.07;;;8.80;99.90;;;;;;5035533;28;20132;-82
2022/05/25 00:39:53;;;;;;;18.10;11.32;;;8.80;99.90;;;;;;5035523;28;20556;-82
2022/05/25 00:42:19;;;;;;;17.90;11.43;;;8.70;99.90;;;;;;5035896;28;20053;-82
2022/05/25 00:44:45;;;;;;;17.15;10.57;;;8.70;99.90;;;;;;5034992;28;20052;-82
2022/05/25 00:47:13;;;;;;;16.58;11.13;;;8.60;99.90;;;;;;5035938;28;20404;-82
2022/05/25 00:49:39;;;;;;;17.45;11.90;;;8.60;99.90;;;;;;5034499;28;20049;-82
2022/05/25 00:52:07;;;;;;;21.08;13.45;;;8.60;99.90;;;;;;5033547;28;20079;-82
2022/05/25 00:54:39;;;;;;;20.35;15.27;;;8.60;99.90;;;;;;5036126;28;20041;-82
2022/05/25 00:57:11;;;;;;;21.30;14.85;;;8.50;99.90;;;;;;5035817;28;20080;-82
2022/05/25 01:00:03;;;;;;;20.88;15.18;;;8.60;99.90;;;;;;5034983;28;20115;-82
2022/05/25 01:02:29;;;;;;;24.08;15.65;;;8.50;99.90;;;;;;5034082;28;20042;-82
2022/05/25 01:04:55;;;;;;;22.02;15.45;;;8.40;99.90;;;;;;5033940;28;20091;-82
2022/05/25 01:07:54;;;;;;;20.50;14.32;;;8.50;99.90;;;;;;5033354;28;20038;-82
2022/05/25 01:10:58;;;;;;;19.95;14.38;;;8.40;99.90;;;;;;5033968;28;20382;-82
2022/05/25 01:13:42;;;;;;;19.60;14.35;;;8.40;99.90;;;;;;5033198;28;20048;-82
2022/05/25 01:16:18;;;;;;;;;;;8.40;99.90;;;;;;5035970;28;20045;-83
2022/05/25 01:18:55;;;;;;;17.63;12.75;;;8.40;99.90;;;;;;5034744;28;20368;-83
2022/05/25 01:21:26;;;;;;;22.67;14.73;;;8.30;99.90;;;;;;5034029;28;20124;-82
2022/05/25 01:24:01;;;;;;;18.35;12.55;;;8.30;99.90;;;;;;5035157;28;20042;-82
2022/05/25 01:27:03;;;;;;;19.20;13.30;;;8.30;99.90;;;;;;5034297;28;20065;-82
2022/05/25 01:29:57;;;;;;;19.13;13.27;;;8.30;99.90;;;;;;5035161;28;20081;-82
2022/05/25 01:32:31;;;;;;;19.13;13.48;;;8.30;99.90;;;;;;5034985;28;20049;-82
2022/05/25 01:35:22;;;;;;;18.92;13.48;;;8.20;99.90;;;;;;5033977;28;20053;-83
2022/05/25 01:38:21;;;;;;;18.85;13.77;;;8.20;99.90;;;;;;5034268;28;20057;-82
2022/05/25 01:40:56;;;;;;;20.55;13.90;;;8.10;99.90;;;;;;5032537;28;20099;-82
2022/05/25 01:43:28;;;;;;;24.20;15.98;;;8.10;99.90;;;;;;5034976;28;20072;-82
2022/05/25 01:45:59;;;;;;;23.38;16.05;;;8.10;99.90;;;;;;5033032;28;20445;-82
2022/05/25 01:48:27;;;;;;;25.58;16.10;;;8.10;99.90;;;;;;5032858;28;20397;-82
2022/05/25 01:51:03;;;;;;;23.97;17.60;;;8.10;99.90;;;;;;5034473;28;20389;-82
2022/05/25 01:53:39;;;;;;;23.25;15.48;;;8.10;99.90;;;;;;5033331;28;20073;-82
2022/05/25 01:56:08;;;;;;;20.75;14.60;;;8.10;99.90;;;;;;5033848;28;20041;-82
2022/05/25 01:58:36;;;;;;;19.50;14.40;;;8.10;99.90;;;;;;5034388;28;20058;-82
2022/05/25 02:01:05;;;;;;;20.75;14.48;;;8.10;99.90;;;;;;5034053;28;20038;-82
2022/05/25 02:06:37;;;;;;;20.30;13.27;;;8.00;99.90;;;;;;5033788;28;20049;-82
2022/05/25 02:09:22;;;;;;;20.20;13.40;;;8.00;99.90;;;;;;5034513;28;20053;-82
2022/05/25 02:12:04;;;;;;;20.48;13.02;;;7.90;99.90;;;;;;5036812;28;20087;-83
2022/05/25 02:14:46;;;;;;;19.15;12.20;;;7.90;99.90;;;;;;5033996;28;20539;-82
2022/05/25 02:17:51;;;;;;;21.50;13.32;;;7.90;99.90;;;;;;5033439;28;20054;-82
2022/05/25 02:20:29;;;;;;;21.35;14.27;;;7.90;99.90;;;;;;5034270;28;20412;-82
2022/05/25 02:23:02;;;;;;;18.55;12.35;;;7.80;99.90;;;;;;5032947;28;20072;-83
2022/05/25 02:25:36;;;;;;;22.35;13.05;;;7.70;99.90;;;;;;5033094;28;20463;-82
2022/05/25 02:28:12;;;;;;;21.25;13.18;;;7.80;99.90;;;;;;5032495;28;20060;-82
2022/05/25 02:30:45;;;;;;;23.73;13.15;;;7.70;99.90;;;;;;5033324;28;20060;-82
2022/05/25 02:33:28;;;;;;;19.30;12.02;;;7.70;99.90;;;;;;5032333;28;20037;-83
2022/05/25 02:35:56;;;;;;;19.80;12.73;;;7.60;99.90;;;;;;5033262;28;20084;-82
2022/05/25 02:38:21;;;;;;;21.08;13.05;;;7.70;99.90;;;;;;5031732;28;20056;-82
2022/05/25 02:40:47;;;;;;;20.95;13.35;;;7.60;99.90;;;;;;5033175;28;20045;-83
2022/05/25 02:43:13;;;;;;;22.75;13.27;;;7.60;99.90;;;;;;5032419;28;20049;-83
2022/05/25 02:45:39;;;;;;;21.17;13.33;;;7.70;99.90;;;;;;5033145;28;20150;-83
2022/05/25 02:48:06;;;;;;;21.30;13.97;;;8.10;99.90;;;;;;5033562;28;20038;-83
2022/05/25 02:50:31;;;;;;;23.38;14.27;;;7.60;99.90;;;;;;5031615;28;20096;-83
2022/05/25 02:52:57;;;;;;;22.98;13.90;;;7.60;99.90;;;;;;5033266;28;20041;-82
2022/05/25 02:55:24;;;;;;;20.40;13.57;;;7.60;99.90;;;;;;5033641;28;20095;-83
2022/05/25 02:57:49;;;;;;;22.70;15.00;;;7.60;99.90;;;;;;5032484;28;20051;-83
2022/05/25 03:00:16;;;;;;;23.75;15.30;;;7.60;99.90;;;;;;5032117;28;20132;-82
2022/05/25 03:02:42;;;;;;;22.77;14.60;;;7.60;99.90;;;;;;5032013;28;20073;-82
2022/05/25 03:05:12;;;;;;;23.38;13.80;;;7.70;99.90;;;;;;5032757;28;20049;-82
2022/05/25 03:07:38;;;;;;;24.70;16.08;;;7.60;99.90;;;;;;5031813;28;20047;-82
2022/05/25 03:10:05;;;;;;;23.67;14.63;;;7.60;99.90;;;;;;5033329;28;20041;-82
2022/05/25 03:12:31;;;;;;;22.42;14.18;;;7.60;99.90;;;;;;5032360;28;20033;-82
2022/05/25 03:14:56;;;;;;;24.80;14.73;;;7.60;99.90;;;;;;5031434;28;20101;-83
2022/05/25 03:17:22;;;;;;;23.40;14.50;;;7.60;99.90;;;;;;5032867;28;20041;-83
2022/05/25 03:19:53;;;;;;;26.75;15.52;;;7.50;99.90;;;;;;5030112;28;20080;-82
2022/05/25 03:22:19;;;;;;;25.05;14.73;;;7.50;99.90;;;;;;5033134;28;20037;-83
2022/05/25 03:24:45;;;;;;;25.35;15.25;;;7.50;99.90;;;;;;5031287;28;20041;-83
2022/05/25 03:27:11;;;;;;;25.35;14.63;;;7.60;99.90;;;;;;5030968;28;20048;-83
2022/05/25 03:29:36;;;;;;;24.97;14.80;;;7.60;99.90;;;;;;5033338;28;20060;-83
2022/05/25 03:32:02;;;;;;;25.38;14.52;;;7.60;99.90;;;;;;5031506;28;20045;-82
2022/05/25 03:34:28;;;;;;;25.42;14.93;;;7.60;99.90;;;;;;5032120;28;20053;-83
2022/05/25 03:36:57;;;;;;;26.98;15.38;;;7.60;99.90;;;;;;5031413;28;20037;-83
2022/05/25 03:39:23;;;;;;;27.48;15.23;;;7.60;99.90;;;;;;5031465;28;20152;-83
2022/05/25 03:41:57;;;;;;;28.05;16.30;;;7.60;99.90;;;;;;5031529;28;20405;-83
2022/05/25 03:44:23;;;;;;;26.58;15.05;;;7.70;99.90;;;;;;5032487;28;20152;-83
2022/05/25 03:46:52;;;;;;;26.77;15.77;;;7.70;99.90;;;;;;5030236;28;20510;-83
2022/05/25 03:49:19;;;;;;;24.13;15.35;;;7.80;99.90;;;;;;5031163;28;20095;-83
2022/05/25 03:51:45;;;;;;;28.80;16.40;;;7.70;99.90;;;;;;5031257;28;20049;-83
2022/05/25 03:54:11;;;;;;;28.10;15.83;;;7.80;99.90;;;;;;5030604;28;20489;-83
2022/05/25 03:56:37;;;;;;;29.77;16.13;;;7.80;99.90;;;;;;5032547;28;20061;-83
2022/05/25 03:59:03;;;;;;;29.07;16.67;;;7.90;99.90;;;;;;5032224;28;20045;-83
2022/05/25 04:01:31;;;;;;;27.13;16.23;;;7.90;99.90;;;;;;5030193;28;20519;-83
2022/05/25 04:03:58;;;;;;;29.50;17.02;;;7.90;99.90;;;;;;5031005;28;20057;-83
2022/05/25 04:06:24;;;;;;;30.83;17.55;;;8.00;99.90;;;;;;5031096;28;20053;-83
2022/05/25 04:08:50;;;;;;;31.63;17.38;;;8.10;99.90;;;;;;5031656;28;20083;-83
2022/05/25 04:11:16;;;;;;;31.70;16.88;;;8.10;99.90;;;;;;5031087;28;20054;-83
2022/05/25 04:13:41;;;;;;;32.08;18.55;;;8.10;99.90;;;;;;5032045;28;20052;-83
2022/05/25 04:16:07;;;;;;;31.77;18.33;;;8.20;99.90;;;;;;5031873;28;20052;-83
2022/05/25 04:18:32;;;;;;;32.33;18.67;;;8.30;99.90;;;;;;5031065;28;20072;-83
2022/05/25 04:20:58;;;;;;;31.27;18.38;;;8.40;99.90;;;;;;5032188;28;20068;-83
2022/05/25 04:23:26;;;;;;;34.20;19.85;;;8.40;99.90;;;;;;5031926;28;20052;-83
2022/05/25 04:25:53;;;;;;;36.30;19.88;;;8.50;99.90;;;;;;5030752;28;20045;-83
2022/05/25 04:28:20;;;;;;;35.65;18.58;;;8.60;99.90;;;;;;5032133;28;20113;-83
2022/05/25 04:30:46;;;;;;;33.78;19.23;;;8.60;99.90;;;;;;5031355;28;20045;-83
2022/05/25 04:33:11;;;;;;;37.30;20.17;;;8.80;99.90;;;;;;5032242;28;20183;-83
2022/05/25 04:35:37;;;;;;;33.88;19.30;;;8.80;99.90;;;;;;5032453;28;20042;-83
2022/05/25 04:38:03;;;;;;;31.67;19.02;;;8.90;99.90;;;;;;5029913;28;20485;-82
2022/05/25 04:40:32;;;;;;;33.47;19.38;;;9.00;99.90;;;;;;5032206;28;20044;-83
2022/05/25 04:43:01;;;;;;;33.15;18.63;;;9.10;99.90;;;;;;5030370;28;20486;-83
2022/05/25 04:45:28;;;;;;;30.30;18.58;;;9.10;99.90;;;;;;5030792;28;20053;-83
2022/05/25 04:47:55;;;;;;;32.60;18.23;;;9.20;99.90;;;;;;5031968;28;20128;-83
2022/05/25 04:50:22;;;;;;;31.05;18.17;;;9.20;99.90;;;;;;5031222;28;20615;-83
2022/05/25 04:52:48;;;;;;;30.33;18.20;;;9.30;99.90;;;;;;5031663;28;20428;-83
2022/05/25 04:57:59;;;;;;;33.58;19.08;;;9.40;99.90;;;;;;5034513;28;20096;-83
2022/05/25 05:00:25;;;;;;;31.42;18.70;;;9.60;99.90;;;;;;5035562;28;20052;-83
2022/05/25 05:02:51;;;;;;;30.33;18.60;;;9.60;99.90;;;;;;5033826;28;20050;-83
2022/05/25 05:05:17;;;;;;;30.80;18.67;;;9.60;99.90;;;;;;5033455;28;20059;-83
2022/05/25 05:07:43;;;;;;;27.73;17.75;;;9.70;99.90;;;;;;5035092;28;20080;-83
2022/05/25 05:10:09;;;;;;;32.63;18.83;;;9.80;99.90;;;;;;5034125;28;20042;-88
2022/05/25 05:12:35;;;;;;;29.75;17.48;;;9.90;99.90;;;;;;5047165;28;20045;-87
2022/05/25 05:15:00;;;;;;;30.25;18.27;;;10.00;99.90;;;;;;5054262;28;20053;-87
2022/05/25 05:17:26;;;;;;;28.33;17.50;;;10.10;99.90;;;;;;5035043;28;20045;-87
2022/05/25 05:19:51;;;;;;;26.80;16.83;;;10.10;99.90;;;;;;5034998;28;20064;-89
2022/05/25 05:22:17;;;;;;;26.05;17.08;;;10.20;99.90;;;;;;5036254;28;20056;-86
2022/05/25 05:24:43;;;;;;;25.33;16.33;;;10.30;99.90;;;;;;5034896;28;20048;-88
2022/05/25 05:27:08;;;;;;;27.90;16.80;;;10.40;99.90;;;;;;5033549;28;20049;-88
2022/05/25 05:29:34;;;;;;;27.10;16.63;;;10.40;99.90;;;;;;5033272;28;20053;-88
2022/05/25 05:32:00;;;;;;;26.08;15.60;;;10.50;99.90;;;;;;5033474;28;20061;-87
2022/05/25 05:34:28;;;;;;;26.85;16.13;;;10.60;99.90;;;;;;5034259;28;20057;-87
2022/05/25 05:37:19;;;;;;;25.48;16.23;;;10.70;99.90;;;;;;5035000;28;20101;-89
2022/05/25 05:39:48;;;;;;;24.30;15.43;;;10.80;99.90;;;;;;5033380;28;20073;-89
2022/05/25 05:42:17;;;;;;;25.00;15.40;;;10.80;99.90;;;;;;5034580;28;20505;-90
2022/05/25 05:44:58;;;;;;;24.52;15.93;;;10.90;99.90;;;;;;5033445;28;20049;-89
2022/05/25 05:47:32;;;;;;;23.70;15.48;;;10.90;99.90;;;;;;5033207;28;20526;-89
2022/05/25 05:49:58;;;;;;;24.02;15.57;;;11.70;99.90;;;;;;5031719;28;20060;-88
2022/05/25 05:52:25;;;;;;;25.55;16.02;;;11.10;99.90;;;;;;5019943;28;20080;-88
2022/05/25 05:54:51;;;;;;;24.25;15.68;;;11.20;99.90;;;;;;5017042;28;20045;-87
2022/05/25 05:57:16;;;;;;;27.42;16.20;;;11.20;99.90;;;;;;5025901;28;20505;-88
2022/05/25 05:59:42;;;;;;;25.65;15.75;;;11.30;99.90;;;;;;5028588;28;20072;-88
2022/05/25 06:02:07;;;;;;;22.10;14.77;;;11.40;99.90;;;;;;5027660;28;20045;-88
2022/05/25 06:04:33;;;;;;;24.50;14.57;;;11.40;99.90;;;;;;5018298;28;20034;-91
2022/05/25 06:06:59;;;;;;;26.42;15.70;;;11.40;99.90;;;;;;5013252;28;20136;-89
2022/05/25 06:09:25;;;;;;;22.80;15.38;;;11.50;99.90;;;;;;5013023;28;20038;-91
2022/05/25 06:11:50;;;;;;;22.75;14.57;;;11.60;99.90;;;;;;5015324;28;20510;-89
2022/05/25 06:14:16;;;;;;;26.15;15.50;;;11.60;99.90;;;;;;5013561;28;20077;-91
2022/05/25 06:19:27;;;;;;;22.95;15.13;;;11.80;99.90;;;;;;5012939;28;20057;-89
2022/05/25 06:22:02;;;;;;;23.80;15.50;;;11.90;99.90;;;;;;5021191;28;20379;-90
2022/05/25 06:24:31;;;;;;;24.33;14.70;;;11.90;99.90;;;;;;5017128;28;20038;-86
2022/05/25 06:26:56;;;;;;;23.67;14.77;;;12.00;99.90;;;;;;5013503;28;20053;-84
2022/05/25 06:29:22;;;;;;;21.77;14.35;;;12.10;99.90;;;;;;5018296;28;20050;-86
2022/05/25 06:31:48;;;;;;;21.60;14.30;;;12.20;99.90;;;;;;5012495;28;20073;-85
2022/05/25 06:34:15;;;;;;;24.55;15.05;;;12.30;99.90;;;;;;5012659;28;20076;-85
2022/05/25 06:36:41;;;;;;;26.27;14.82;;;12.40;99.90;;;;;;5012817;28;20053;-86
2022/05/25 06:39:08;;;;;;;25.27;15.13;;;12.50;99.90;;;;;;5012708;28;20064;-86
2022/05/25 06:41:33;;;;;;;23.30;14.73;;;12.50;99.90;;;;;;5013932;28;20065;-87
2022/05/25 06:44:00;;;;;;;25.60;15.45;;;12.70;99.90;;;;;;5011428;28;20045;-86
2022/05/25 06:46:26;;;;;;;23.13;14.85;;;12.80;99.90;;;;;;5013879;28;20046;-87
2022/05/25 06:48:57;;;;;;;25.88;15.07;;;12.90;99.90;;;;;;5013766;28;20049;-88
2022/05/25 06:51:28;;;;;;;22.05;13.90;;;13.00;99.90;;;;;;5015437;28;20049;-85
2022/05/25 06:53:54;;;;;;;23.70;14.02;;;13.10;99.90;;;;;;5014030;28;20038;-86
2022/05/25 06:56:22;;;;;;;22.88;14.13;;;13.30;99.90;;;;;;5013512;28;20509;-87
2022/05/25 06:58:48;;;;;;;20.88;13.80;;;13.50;99.90;;;;;;5018651;28;20077;-86
2022/05/25 07:01:13;;;;;;;20.58;13.07;;;13.80;99.90;;;;;;5013488;28;20088;-86
2022/05/25 07:03:39;;;;;;;22.27;13.32;;;13.70;99.90;;;;;;5012421;28;20055;-85
2022/05/25 07:06:06;;;;;;;18.35;11.98;;;13.80;99.90;;;;;;5011445;28;20465;-85
2022/05/25 07:08:32;;;;;;;19.58;13.25;;;13.90;99.90;;;;;;5011321;28;20033;-86
2022/05/25 07:10:58;;;;;;;20.88;11.77;;;14.00;99.90;;;;;;5024393;28;20371;-87
2022/05/25 07:13:24;;;;;;;20.13;12.65;;;14.10;99.90;;;;;;5053065;28;20049;-89
2022/05/25 07:15:55;;;;;;;17.30;10.68;;;14.30;99.90;;;;;;5032539;28;20046;-90
2022/05/25 07:18:20;;;;;;;17.55;10.57;;;14.30;99.90;;;;;;5010344;28;20096;-88
2022/05/25 07:20:46;;;;;;;17.40;11.00;;;14.40;99.90;;;;;;5011711;28;20441;-88
2022/05/25 07:23:11;;;;;;;16.38;10.05;;;14.50;99.90;;;;;;5012083;28;20046;-87
2022/05/25 07:25:37;;;;;;;15.25;9.40;;;14.60;99.90;;;;;;5012639;28;20437;-87
2022/05/25 07:28:02;;;;;;;18.23;9.32;;;14.60;99.90;;;;;;5022214;28;20074;-89
2022/05/25 07:30:28;;;;;;;17.90;8.80;;;14.80;99.90;;;;;;5012924;28;20042;-87
2022/05/25 07:32:56;;;;;;;16.65;9.23;;;14.80;99.90;;;;;;5010587;28;20042;-86
2022/05/25 07:35:22;;;;;;;18.02;9.57;;;14.70;99.90;;;;;;5013186;28;20042;-87
2022/05/25 07:37:52;;;;;;;16.48;9.75;;;14.80;99.90;;;;;;5012903;28;20096;-87
2022/05/25 07:40:25;;;;;;;15.32;9.77;;;14.90;99.90;;;;;;5012539;28;20054;-87
2022/05/25 07:42:57;;;;;;;17.33;9.18;;;15.20;99.90;;;;;;5012680;28;20470;-87
2022/05/25 07:45:23;;;;;;;14.70;8.68;;;16.00;99.90;;;;;;5011987;28;20057;-89
2022/05/25 07:47:53;;;;;;;14.35;8.40;;;15.50;99.90;;;;;;5011972;28;20073;-89
2022/05/25 07:50:20;;;;;;;15.90;7.75;;;15.60;99.90;;;;;;5011573;28;20057;-89
2022/05/25 07:52:46;;;;;;;14.18;8.00;;;15.80;99.90;;;;;;5013749;28;20104;-90
2022/05/25 07:55:12;;;;;;;13.43;7.05;;;15.90;99.90;;;;;;5011238;28;20089;-89
2022/05/25 07:57:38;;;;;;;12.77;6.65;;;16.00;99.90;;;;;;5012983;28;20077;-89
2022/05/25 08:00:06;;;;;;;13.90;6.00;;;16.10;99.90;;;;;;5010485;28;20042;-88
2022/05/25 08:05:43;;;;;;;12.32;4.95;;;16.10;99.90;;;;;;5013388;28;20050;-86
2022/05/25 08:08:14;;;;;;;10.15;5.07;;;16.30;99.90;;;;;;5012194;28;20054;-86
2022/05/25 08:10:42;;;;;;;11.02;5.10;;;16.30;99.90;;;;;;5010954;28;20049;-85
2022/05/25 08:13:11;;;;;;;11.52;5.30;;;16.40;99.90;;;;;;5011416;28;20125;-85
2022/05/25 08:15:42;;;;;;;12.90;4.65;;;16.70;99.90;;;;;;5010749;28;20132;-86
2022/05/25 08:18:12;;;;;;;10.55;4.20;;;16.70;99.90;;;;;;5018977;28;20050;-85
2022/05/25 08:20:38;;;;;;;9.98;4.60;;;16.70;99.90;;;;;;5014038;28;20042;-88
2022/05/25 08:23:09;;;;;;;9.30;4.60;;;16.60;99.90;;;;;;5010328;28;20410;-87
2022/05/25 08:25:35;;;;;;;9.65;4.72;;;16.50;99.90;;;;;;5011408;28;20080;-86
2022/05/25 08:28:02;;;;;;;10.63;4.82;;;16.50;99.90;;;;;;5012366;28;20058;-86
2022/05/25 08:30:28;;;;;;;9.70;4.55;;;16.50;99.90;;;;;;5013804;28;20090;-86
2022/05/25 08:32:54;;;;;;;11.52;4.35;;;16.60;99.90;;;;;;5016308;28;20037;-87
2022/05/25 08:35:19;;;;;;;10.77;4.82;;;16.70;99.90;;;;;;5015223;28;20494;-86
2022/05/25 08:37:46;;;;;;;10.43;4.75;;;16.90;99.90;;;;;;5016672;28;20046;-86
2022/05/25 08:40:17;;;;;;;10.82;4.68;;;17.00;99.90;;;;;;5015195;28;20050;-86
2022/05/25 08:43:08;;;;;;;9.90;5.00;;;17.30;99.90;;;;;;5015096;28;20053;-86
2022/05/25 08:45:40;;;;;;;11.95;4.55;;;17.20;99.90;;;;;;5015518;28;20077;-86
2022/05/25 08:48:08;;;;;;;10.17;4.60;;;17.00;99.90;;;;;;5016720;28;20524;-86
2022/05/25 08:50:35;;;;;;;9.68;4.40;;;16.80;99.90;;;;;;5015744;28;20382;-86
2022/05/25 08:53:02;;;;;;;8.93;4.63;;;16.70;99.90;;;;;;5015525;28;20045;-86
2022/05/25 08:56:05;;;;;;;17.75;5.15;;;16.60;99.90;;;;;;5017058;28;20525;-86
2022/05/25 08:58:48;;;;;;;11.35;5.35;;;16.60;99.90;;;;;;5013962;28;20050;-86
2022/05/25 09:01:27;;;;;;;10.27;5.07;;;16.70;99.90;;;;;;5016079;28;20073;-86
2022/05/25 09:04:00;;;;;;;10.93;4.95;;;16.90;99.90;;;;;;5013750;28;20120;-86
2022/05/25 09:06:32;;;;;;;9.75;4.90;;;17.20;99.90;;;;;;5014794;28;20046;-86
2022/05/25 09:09:18;;;;;;;10.43;4.78;;;17.30;99.90;;;;;;5015653;28;20050;-86
2022/05/25 09:11:49;;;;;;;10.00;4.60;;;17.50;99.90;;;;;;5013491;28;20056;-86
2022/05/25 09:14:28;;;;;;;9.00;4.28;;;17.60;99.90;;;;;;5016019;28;20038;-87
2022/05/25 09:16:57;;;;;;;9.95;4.90;;;17.70;99.90;;;;;;5014345;28;20042;-86
2022/05/25 09:19:31;;;;;;;9.55;4.90;;;17.90;99.90;;;;;;5014838;28;20084;-87
2022/05/25 09:22:08;;;;;;;;;;;17.90;99.90;;;;;;5015682;28;20054;-87
2022/05/25 09:24:35;;;;;;;9.82;5.07;;;17.70;99.90;;;;;;5014894;28;19922;-86
2022/05/25 09:27:04;;;;;;;10.02;5.20;;;17.90;99.90;;;;;;5015521;28;20132;-86
2022/05/25 09:29:29;;;;;;;9.70;4.78;;;18.20;99.90;;;;;;5015541;28;20046;-86
2022/05/25 09:31:59;;;;;;;9.80;4.85;;;18.10;99.90;;;;;;5014627;28;20042;-87
2022/05/25 09:34:47;;;;;;;13.07;5.03;;;18.10;99.90;;;;;;5015331;28;20092;-87
2022/05/25 09:37:53;;;;;;;10.52;4.90;;;18.20;99.90;;;;;;5014175;28;20050;-86
2022/05/25 09:40:24;;;;;;;13.73;5.00;;;18.20;99.90;;;;;;5013189;28;20049;-87
2022/05/25 09:42:53;;;;;;;10.88;5.38;;;18.20;99.90;;;;;;5012437;28;20065;-87
2022/05/25 09:45:19;;;;;;;10.20;5.07;;;18.00;99.90;;;;;;5013711;28;20052;-86
2022/05/25 09:47:47;;;;;;;10.65;4.55;;;18.10;99.90;;;;;;5014115;28;20038;-87
2022/05/25 09:50:33;;;;;;;10.65;4.80;;;18.20;99.90;;;;;;5014100;28;20108;-86
2022/05/25 09:53:04;;;;;;;11.15;5.60;;;18.20;99.90;;;;;;5013499;28;20056;-86
2022/05/25 09:55:41;;;;;;;10.75;5.40;;;18.20;99.90;;;;;;5015010;28;20437;-85
2022/05/25 09:58:13;;;;;;;12.35;6.15;;;18.00;99.90;;;;;;5015058;28;20046;-85
2022/05/25 10:00:47;;;;;;;11.43;5.50;;;18.00;99.90;;;;;;5013948;28;20126;-86
2022/05/25 10:03:33;;;;;;;12.07;5.50;;;18.20;99.90;;;;;;5014625;28;20049;-85
2022/05/25 10:06:01;;;;;;;10.15;4.90;;;18.00;99.90;;;;;;5012436;28;20054;-85
2022/05/25 10:08:31;;;;;;;8.82;4.50;;;18.10;99.90;;;;;;5012762;28;20153;-88
2022/05/25 10:11:07;;;;;;;10.15;4.40;;;18.40;99.90;;;;;;5015759;28;20129;-87
2022/05/25 10:13:40;;;;;;;10.40;4.50;;;18.10;99.90;;;;;;5014053;28;20056;-85
2022/05/25 10:16:28;;;;;;;11.50;4.60;;;18.60;99.90;;;;;;5032306;28;20052;-86
2022/05/25 10:18:55;;;;;;;10.80;4.88;;;18.20;99.90;;;;;;5032295;28;20045;-87
2022/05/25 10:21:29;;;;;;;11.18;5.05;;;18.20;99.90;;;;;;5031857;28;20084;-93
2022/05/25 10:23:57;;;;;;;9.85;5.20;;;18.40;99.90;;;;;;5034061;28;20465;-88
2022/05/25 10:26:38;;;;;;;11.82;5.13;;;18.40;99.90;;;;;;5034162;28;20048;-89
2022/05/25 10:29:10;;;;;;;11.27;5.22;;;18.40;99.90;;;;;;5031631;28;20081;-88
2022/05/25 10:37:51;;;;;;;8.70;4.30;;;18.70;99.90;;;;;;5015342;23;20058;-85
2022/05/25 10:40:27;;;;;;;8.98;4.38;;;18.50;99.90;;;;;;4998516;28;20053;-86
2022/05/25 10:43:17;;;;;;;11.45;4.38;;;18.60;99.90;;;;;;4993311;28;20054;-85
2022/05/25 10:45:53;;;;;;;9.07;4.65;;;18.40;99.90;;;;;;5016085;23;20100;-86
2022/05/25 10:49:09;;;;;;;12.27;4.72;;;19.30;99.90;;;;;;5013820;28;20103;-88
2022/05/25 10:51:57;;;;;;;10.15;4.25;;;18.10;99.90;;;;;;5015566;28;20050;-89
2022/05/25 10:54:47;;;;;;;8.95;4.28;;;17.70;99.90;;;;;;5012941;28;20260;-88
2022/05/25 10:57:34;;;;;;;9.13;3.83;;;17.70;99.90;;;;;;5012298;28;20398;-90
2022/05/25 11:00:16;;;;;;;8.95;3.53;;;17.50;99.90;;;;;;5011713;28;20512;-86
2022/05/25 11:03:06;;;;;;;8.23;4.25;;;17.30;99.90;;;;;;5013212;28;20500;-88
2022/05/25 11:06:00;;;;;;;9.30;5.18;;;17.00;99.90;;;;;;5013524;28;20046;-90
2022/05/25 11:08:46;;;;;;;9.13;5.50;;;16.50;99.90;;;;;;5014578;28;20091;-93
2022/05/25 11:11:33;;;;;;;9.95;5.43;;;16.50;99.90;;;;;;5012871;28;20050;-91
2022/05/25 11:14:11;;;;;;;12.02;5.80;;;15.60;99.90;;;;;;5014060;28;20648;-94
2022/05/25 11:17:00;;;;;;;10.43;6.10;;;15.40;99.90;;;;;;5013428;28;20045;-90
2022/05/25 11:19:44;;;;;;;11.30;6.28;;;15.30;99.90;;;;;;5013632;28;20604;-92
2022/05/25 11:23:07;;;;;;;13.00;6.85;;;15.50;99.90;;;;;;5012534;28;20072;-88
2022/05/25 11:37:16;;;;;;;9.93;6.28;;;16.60;99.90;;;;;;4973605;28;20041;-91
2022/05/25 11:40:01;;;;;;;12.57;6.78;;;17.10;99.90;;;;;;4972079;28;20141;-92
2022/05/25 11:43:01;;;;;;;11.88;6.65;;;17.90;99.90;;;;;;4973039;28;20403;-90
2022/05/25 11:46:06;;;;;;;10.80;6.20;;;17.30;99.90;;;;;;4986806;28;20130;-90
2022/05/25 11:49:34;;;;;;;10.65;5.38;;;17.30;99.90;;;;;;4991120;28;20046;-90
2022/05/25 11:52:31;;;;;;;11.02;6.07;;;17.70;99.90;;;;;;4978509;28;20089;-89
2022/05/25 11:55:24;;;;;;;9.70;6.00;;;17.90;99.90;;;;;;4990018;28;20057;-89
2022/05/25 11:57:55;;;;;;;11.60;6.30;;;17.80;99.90;;;;;;4989552;28;20046;-88
2022/05/25 12:00:51;;;;;;;10.45;6.22;;;17.70;99.90;;;;;;4990909;28;20525;-89
2022/05/25 12:03:58;;;;;;;10.73;6.80;;;17.70;99.90;;;;;;4991611;28;20394;-88
2022/05/25 12:06:32;;;;;;;10.65;6.07;;;18.00;99.90;;;;;;4994154;28;20449;-88
2022/05/25 12:09:22;;;;;;;9.80;5.95;;;18.40;99.90;;;;;;4995088;28;20133;-88
2022/05/25 12:12:04;;;;;;;10.82;6.22;;;18.60;99.90;;;;;;4992591;28;20470;-88
2022/05/25 12:14:48;;;;;;;10.55;6.00;;;18.70;99.90;;;;;;4992004;28;20042;-88
2022/05/25 12:17:40;;;;;;;10.90;5.97;;;18.80;99.90;;;;;;4995402;28;20041;-88
2022/05/25 12:20:09;;;;;;;9.93;5.93;;;18.50;99.90;;;;;;4994869;28;20046;-88
2022/05/25 12:22:36;;;;;;;12.02;5.90;;;18.20;99.90;;;;;;4993434;28;20049;-88
2022/05/25 12:25:09;;;;;;;10.00;5.15;;;18.00;99.90;;;;;;4994529;28;20061;-87
2022/05/25 12:27:40;;;;;;;10.85;4.57;;;17.80;99.90;;;;;;4995054;28;20144;-87
2022/05/25 12:30:10;;;;;;;10.43;4.82;;;17.70;99.90;;;;;;4995107;28;20049;-90
2022/05/25 12:32:39;;;;;;;11.05;4.75;;;17.70;99.90;;;;;;5005650;23;21522;-87
2022/05/25 12:35:56;;;;;;;10.18;5.00;;;17.50;99.90;;;;;;5015064;28;20045;-88
2022/05/25 12:38:48;;;;;;;12.40;5.63;;;17.60;99.90;;;;;;5015435;28;20054;-87
2022/05/25 12:41:32;;;;;;;12.73;5.60;;;17.50;99.90;;;;;;5016124;28;20053;-87
2022/05/25 12:49:38;;;;;;;11.70;5.22;;;17.40;99.90;;;;;;5015289;28;20058;-86
2022/05/25 12:52:27;;;;;;;9.82;5.22;;;17.60;99.90;;;;;;5015481;28;20038;-87
2022/05/25 12:55:04;;;;;;;11.20;5.80;;;17.60;99.90;;;;;;5015423;28;20050;-88
2022/05/25 12:57:44;;;;;;;10.60;5.70;;;18.00;99.90;;;;;;5013664;28;20096;-87
2022/05/25 13:00:59;;;;;;;11.82;6.20;;;17.80;99.90;;;;;;5016260;28;20505;-89
2022/05/25 13:03:46;;;;;;;12.35;6.20;;;17.90;99.90;;;;;;5005344;28;20073;-89
2022/05/25 13:06:37;;;;;;;11.05;5.95;;;18.10;99.90;;;;;;5014770;28;20042;-89
2022/05/25 13:09:08;;;;;;;9.85;5.45;;;18.30;99.90;;;;;;5000129;28;20064;-91
2022/05/25 13:11:55;;;;;;;11.07;5.70;;;18.30;99.90;;;;;;5014248;28;20042;-89
2022/05/25 13:14:22;;;;;;;12.65;5.85;;;18.40;99.90;;;;;;5014681;28;20045;-89
2022/05/25 13:16:50;;;;;;;11.00;5.40;;;18.70;99.90;;;;;;5011378;28;20144;-89
2022/05/25 13:19:40;;;;;;;11.23;5.30;;;18.70;99.90;;;;;;5014923;28;20180;-88
2022/05/25 13:22:22;;;;;;;11.05;5.28;;;18.80;99.90;;;;;;5013558;28;20046;-87
2022/05/25 13:25:04;;;;;;;9.73;5.57;;;18.90;99.90;;;;;;5010283;28;20114;-88
2022/05/25 13:27:38;;;;;;;10.05;4.50;;;19.10;99.90;;;;;;5012503;28;20052;-88
2022/05/25 13:30:23;;;;;;;9.07;4.40;;;19.00;99.90;;;;;;5014422;28;20113;-87
2022/05/25 13:32:50;;;;;;;10.18;4.47;;;19.00;99.90;;;;;;5011249;28;20042;-87
2022/05/25 13:35:19;;;;;;;8.25;3.78;;;19.10;99.90;;;;;;5013216;28;20097;-89
2022/05/25 13:37:46;;;;;;;9.95;3.45;;;19.10;99.90;;;;;;5012583;28;20044;-87
2022/05/25 13:40:12;;;;;;;7.32;2.65;;;19.40;99.90;;;;;;5013643;28;20140;-87
2022/05/25 13:42:46;;;;;;;5.72;2.40;;;19.50;99.90;;;;;;5013738;28;20056;-86